Windsor, CA

11:55 AM PDT on April 26, 2017 (GMT -0700)
| | Change Station

Elev -9999 ft 0.00 °N, 0.00 °E | Updated 0 second ago

Overcast
Overcast
°F
Feels Like °F
N
Wind Variable Wind from North
Gusts mph

Today
High -- | Low -- °F
--% Chance of Precip.
Yesterday
High -- | Low -- °F
Precip. -- in
Pressure 30.01 in
Visibility 10.0 miles
Clouds Mostly Cloudy 1300 ft
Overcast 2200 ft
Dew Point Not available.
Humidity Not available.
Rainfall --
Snow Depth Not available.
6:19 AM 7:58 PM
New Moon, 0% visible
METAR KSTS 261753Z 25006KT 10SM BKN013 OVC022 16/13 A3002 RMK AO2 SLP160 60002 T01610128 10167 20122 53001
Pressure 30.01 in
Visibility 10.0 miles
Clouds Mostly Cloudy 1300 ft
Overcast 2200 ft
Dew Point Not available.
Humidity Not available.
Rainfall --
Snow Depth Not available.
6:19 AM 7:58 PM
New Moon, 0% visible
METAR KSTS 261753Z 25006KT 10SM BKN013 OVC022 16/13 A3002 RMK AO2 SLP160 60002 T01610128 10167 20122 53001

Get Severe Weather Alerts

Thanks for signing up!

Be on the lookout for a verification email in your inbox.

You'll start receiving the daily forecast at 8 AM.

×

10-Day Weather Forecast

Almanac

Astronomy

Apr. 26, 2017 Rise Set
Actual Time
Civil Twilight
Nautical Twilight
Astronomical Twilight
Moon
Length of Visible Light
Length of Day
Tomorrow will be .
, % of the Moon is Illuminated

Today's Extremes

State Highs State Lows

Community

WunderPhotos

WunderBlog® & News

Nearby

Air Quality

  Air Quality AQ Index Pollutant
Not available.

Snow Depth

Station Depth Elevation

Earthquake Activity

City Distance Mag. Time & Date
Minimum magnitude displayed is 2.5.

Coastal Water Temperatures

Place Temperature

Stations

Nearby Weather Stations

Station Location Temp. Windchill Dew Point Humidity Wind Precip. Elev Updated Type
                   

Watches & Warnings

There are currently no watches in effect.